Terminal Aerodrome Forecast
Issued by NWS

Home | Current Version | Previous Version | Text Only | Print | Product List | Glossary On
Versions: 1 2 3 4 5 6 7 8 9 10 11 12 13 14 15 16 17 18 19 20 21 22 23 24 25 26 27 28 29 30 31 32 33 34 35 36 37 38 39
000
FTUS43 KMKX 250111 AAA
TAFUES
TAF AMD
KUES 250111Z 2501/2524 08009KT P6SM SCT035 OVC050
      TEMPO 2501/2504 4SM SHRA BR BKN035
     FM250400 14006KT 6SM BR OVC060 WS020/27035KT
     FM250600 16007KT 6SM SHRA BR OVC060 WS020/20045KT
     FM250800 18007KT 3SM SHRA BR OVC050 WS020/20045KT
     FM251200 18011G20KT 2SM SHRA BR OVC010
     FM251600 21016G26KT P6SM BKN015
     FM251700 22017G27KT P6SM SCT045=

USA.gov is the U.S. government's official web portal to all federal, state and local government web resources and services.